createdAt,value
2017-09-03T00:00:25.146Z,0
2017-09-03T00:01:26.546Z,0
2017-09-03T00:02:48.058Z,0
2017-09-03T00:03:49.456Z,0
2017-09-03T00:05:10.948Z,0
2017-09-03T00:06:12.350Z,0
2017-09-03T00:07:33.865Z,0
2017-09-03T00:08:35.264Z,0
2017-09-03T00:09:56.759Z,0
2017-09-03T00:10:58.158Z,0
2017-09-03T00:12:19.674Z,0
2017-09-03T00:14:01.033Z,0
2017-09-03T00:15:02.438Z,0
2017-09-03T00:16:23.948Z,0
2017-09-03T00:17:25.368Z,0
2017-09-03T00:18:46.847Z,0
2017-09-03T00:19:48.246Z,0
2017-09-03T00:21:09.765Z,0
2017-09-03T00:22:11.178Z,0
2017-09-03T00:23:32.680Z,0
2017-09-03T00:24:34.085Z,0
2017-09-03T00:25:55.594Z,0
2017-09-03T00:26:56.994Z,0
2017-09-03T00:28:18.489Z,0
2017-09-03T00:29:19.892Z,0
2017-09-03T00:30:41.388Z,0
2017-09-03T00:31:42.793Z,0
2017-09-03T00:33:04.306Z,0
2017-09-03T00:34:05.859Z,0
2017-09-03T00:35:27.362Z,0
2017-09-03T00:36:28.759Z,0
2017-09-03T00:38:00.280Z,0
2017-09-03T00:39:01.681Z,0
2017-09-03T00:40:23.174Z,0
2017-09-03T00:41:24.598Z,0
2017-09-03T00:42:46.109Z,0
2017-09-03T00:43:47.510Z,0
2017-09-03T00:45:09.006Z,0
2017-09-03T00:46:10.408Z,0
2017-09-03T00:47:31.917Z,0
2017-09-03T00:48:33.318Z,0
2017-09-03T00:49:54.847Z,0
2017-09-03T00:50:56.240Z,0
2017-09-03T00:52:17.754Z,0
2017-09-03T00:53:19.157Z,0
2017-09-03T00:54:40.645Z,0
2017-09-03T00:55:42.046Z,0
2017-09-03T00:57:03.562Z,0
2017-09-03T00:58:04.967Z,0
2017-09-03T00:59:26.460Z,0
2017-09-03T01:00:27.865Z,0
2017-09-03T01:01:49.373Z,0
2017-09-03T01:02:51.158Z,0
2017-09-03T01:04:12.629Z,0
2017-09-03T01:05:14.032Z,0
2017-09-03T01:06:35.540Z,0
2017-09-03T01:07:36.947Z,0
2017-09-03T01:08:58.441Z,0
2017-09-03T01:09:59.841Z,0
2017-09-03T01:11:21.353Z,0
2017-09-03T01:12:22.754Z,0
2017-09-03T01:13:44.246Z,0
2017-09-03T01:14:45.646Z,0
2017-09-03T01:16:07.140Z,0
2017-09-03T01:17:08.539Z,0
2017-09-03T01:18:30.055Z,0
2017-09-03T01:19:31.456Z,0
2017-09-03T01:20:52.946Z,0
2017-09-03T01:21:54.348Z,0
2017-09-03T01:23:15.859Z,0
2017-09-03T01:24:17.259Z,0
2017-09-03T01:25:38.752Z,0
2017-09-03T01:26:40.151Z,0
2017-09-03T01:28:01.667Z,0
2017-09-03T01:29:03.068Z,0
2017-09-03T01:30:24.559Z,0
2017-09-03T01:31:25.961Z,0
2017-09-03T01:32:47.471Z,0
2017-09-03T01:33:48.868Z,0
2017-09-03T01:35:10.366Z,0
2017-09-03T01:36:11.766Z,0
2017-09-03T01:37:33.277Z,0
2017-09-03T01:38:34.681Z,0
2017-09-03T01:39:56.167Z,0
2017-09-03T01:40:57.568Z,0
2017-09-03T01:42:19.078Z,0
2017-09-03T01:43:20.479Z,0
2017-09-03T01:44:41.969Z,0
2017-09-03T01:45:43.369Z,0
2017-09-03T01:47:04.881Z,0
2017-09-03T01:48:06.281Z,0
2017-09-03T01:49:27.772Z,0
2017-09-03T01:50:29.174Z,0
2017-09-03T01:51:50.682Z,0
2017-09-03T01:52:52.082Z,0
2017-09-03T01:54:13.769Z,0
2017-09-03T01:55:15.171Z,0
2017-09-03T01:56:36.679Z,0
2017-09-03T01:57:38.081Z,0
2017-09-03T01:58:59.571Z,0
2017-09-03T02:00:00.971Z,0
2017-09-03T02:01:22.466Z,0
2017-09-03T02:02:23.865Z,0
2017-09-03T02:03:45.378Z,0
2017-09-03T02:04:46.779Z,0
2017-09-03T02:06:08.267Z,0
2017-09-03T02:07:09.668Z,0
2017-09-03T02:08:31.185Z,0
2017-09-03T02:09:32.586Z,0
2017-09-03T02:10:54.077Z,0
2017-09-03T02:11:55.475Z,0
2017-09-03T02:13:16.985Z,0
2017-09-03T02:14:18.384Z,0
2017-09-03T02:15:39.874Z,0
2017-09-03T02:16:41.272Z,0
2017-09-03T02:18:02.782Z,0
2017-09-03T02:19:04.183Z,0
2017-09-03T02:20:25.673Z,0
2017-09-03T02:21:27.071Z,0
2017-09-03T02:22:48.588Z,0
2017-09-03T02:23:49.989Z,0
2017-09-03T02:25:11.484Z,0
2017-09-03T02:26:12.884Z,0
2017-09-03T02:27:34.396Z,0
2017-09-03T02:28:35.797Z,0
2017-09-03T02:29:57.285Z,0
2017-09-03T02:30:58.685Z,0
2017-09-03T02:32:20.213Z,0
2017-09-03T02:33:21.612Z,0
2017-09-03T02:34:43.106Z,0
2017-09-03T02:35:44.507Z,0
2017-09-03T02:37:06.081Z,0
2017-09-03T02:38:07.635Z,0
2017-09-03T02:39:29.125Z,0
2017-09-03T02:40:30.703Z,0
2017-09-03T02:41:53.187Z,0
2017-09-03T02:42:54.593Z,0
2017-09-03T02:44:16.238Z,0
2017-09-03T02:45:17.654Z,0
2017-09-03T02:46:39.131Z,0
2017-09-03T02:47:40.533Z,0
2017-09-03T02:49:02.043Z,0
2017-09-03T02:50:03.443Z,0
2017-09-03T02:51:24.934Z,0
2017-09-03T02:52:26.334Z,0
2017-09-03T02:53:47.844Z,0
2017-09-03T02:54:49.245Z,0
2017-09-03T02:56:10.735Z,0
2017-09-03T02:57:12.133Z,0
2017-09-03T02:58:33.647Z,0
2017-09-03T02:59:35.048Z,0
2017-09-03T03:00:56.540Z,0
2017-09-03T03:01:57.939Z,0
2017-09-03T03:03:19.429Z,0
2017-09-03T03:04:20.826Z,0
2017-09-03T03:05:42.337Z,0
2017-09-03T03:06:43.742Z,0
2017-09-03T03:08:05.227Z,0
2017-09-03T03:09:06.628Z,0
2017-09-03T03:10:28.140Z,0
2017-09-03T03:11:29.545Z,0
2017-09-03T03:12:51.032Z,0
2017-09-03T03:13:52.432Z,0
2017-09-03T03:15:13.941Z,0
2017-09-03T03:16:15.346Z,0
2017-09-03T03:17:36.836Z,0
2017-09-03T03:18:38.234Z,0
2017-09-03T03:19:59.741Z,0
2017-09-03T03:21:01.143Z,0
2017-09-03T03:22:22.631Z,0
2017-09-03T03:23:24.031Z,0
2017-09-03T03:24:45.520Z,0
2017-09-03T03:25:46.918Z,0
2017-09-03T03:27:08.445Z,0
2017-09-03T03:28:09.856Z,0
2017-09-03T03:29:31.344Z,0
2017-09-03T03:30:32.742Z,0
2017-09-03T03:31:54.255Z,0
2017-09-03T03:32:55.651Z,0
2017-09-03T03:34:18.135Z,0
2017-09-03T03:35:19.577Z,0
2017-09-03T03:36:41.088Z,0
2017-09-03T03:37:42.490Z,0
2017-09-03T03:39:03.976Z,0
2017-09-03T03:40:05.375Z,0
2017-09-03T03:41:26.888Z,0
2017-09-03T03:42:28.284Z,0
2017-09-03T03:43:49.771Z,0
2017-09-03T03:44:51.173Z,0
2017-09-03T03:46:12.686Z,0
2017-09-03T03:47:14.089Z,0
2017-09-03T03:48:35.579Z,0
2017-09-03T03:49:36.978Z,0
2017-09-03T03:50:58.491Z,0
2017-09-03T03:51:59.892Z,0
2017-09-03T03:53:21.379Z,0
2017-09-03T03:54:22.779Z,0
2017-09-03T03:55:44.292Z,0
2017-09-03T03:56:45.693Z,0
2017-09-03T03:58:07.192Z,0
2017-09-03T03:59:08.591Z,0
2017-09-03T04:00:30.103Z,0
2017-09-03T04:01:31.502Z,0
2017-09-03T04:02:52.999Z,0
2017-09-03T04:03:54.395Z,0
2017-09-03T04:05:15.883Z,0
2017-09-03T04:06:17.288Z,0
2017-09-03T04:07:38.796Z,0
2017-09-03T04:08:40.199Z,0
2017-09-03T04:10:01.688Z,0
2017-09-03T04:11:03.088Z,4
2017-09-03T04:12:24.609Z,4
2017-09-03T04:13:26.007Z,0
2017-09-03T04:14:47.498Z,4
2017-09-03T04:15:48.896Z,4
2017-09-03T04:17:10.411Z,8
2017-09-03T04:18:11.813Z,4
2017-09-03T04:19:33.302Z,4
2017-09-03T04:20:34.700Z,8
2017-09-03T04:21:56.215Z,8
2017-09-03T04:22:57.619Z,12
2017-09-03T04:24:19.105Z,12
2017-09-03T04:25:20.508Z,16
2017-09-03T04:26:42.015Z,24
2017-09-03T04:27:43.420Z,28
2017-09-03T04:29:04.911Z,36
2017-09-03T04:30:06.312Z,44
2017-09-03T04:31:27.826Z,56
2017-09-03T04:32:29.229Z,60
2017-09-03T04:33:50.717Z,64
2017-09-03T04:34:52.119Z,72
2017-09-03T04:36:13.630Z,84
2017-09-03T04:37:15.046Z,92
2017-09-03T04:38:36.529Z,104
2017-09-03T04:39:37.930Z,108
2017-09-03T04:40:59.439Z,128
2017-09-03T04:42:00.846Z,148
2017-09-03T04:43:22.341Z,172
2017-09-03T04:44:23.753Z,188
2017-09-03T04:45:45.289Z,220
2017-09-03T04:46:46.666Z,244
2017-09-03T04:48:08.157Z,276
2017-09-03T04:49:09.557Z,304
2017-09-03T04:50:31.061Z,340
2017-09-03T04:51:32.463Z,368
2017-09-03T04:52:53.978Z,404
2017-09-03T04:53:55.376Z,432
2017-09-03T04:55:17.375Z,472
2017-09-03T04:56:18.778Z,508
2017-09-03T04:57:40.291Z,568
2017-09-03T04:58:41.810Z,604
2017-09-03T05:00:03.308Z,652
2017-09-03T05:01:04.711Z,696
2017-09-03T05:02:26.226Z,752
2017-09-03T05:03:27.629Z,780
2017-09-03T05:04:49.130Z,836
2017-09-03T05:05:50.529Z,872
2017-09-03T05:07:12.040Z,916
2017-09-03T05:08:13.446Z,952
2017-09-03T05:09:34.938Z,992
2017-09-03T05:10:36.345Z,1024
2017-09-03T05:11:57.871Z,1072
2017-09-03T05:12:59.269Z,1124
2017-09-03T05:14:20.769Z,1196
2017-09-03T05:15:22.174Z,1272
2017-09-03T05:16:44.691Z,1324
2017-09-03T05:17:46.088Z,1364
2017-09-03T05:19:07.582Z,1424
2017-09-03T05:20:08.989Z,1472
2017-09-03T05:21:30.505Z,1532
2017-09-03T05:22:31.911Z,1592
2017-09-03T05:23:53.404Z,1660
2017-09-03T05:24:54.809Z,1716
2017-09-03T05:26:16.328Z,1776
2017-09-03T05:27:17.733Z,1820
2017-09-03T05:28:39.231Z,1884
2017-09-03T05:29:40.636Z,1920
2017-09-03T05:31:02.134Z,1996
2017-09-03T05:32:03.539Z,2016
2017-09-03T05:33:25.052Z,2072
2017-09-03T05:34:26.463Z,2112
2017-09-03T05:35:47.956Z,2248
2017-09-03T05:36:49.366Z,2316
2017-09-03T05:38:10.877Z,2376
2017-09-03T05:39:12.287Z,2468
2017-09-03T05:40:33.782Z,2456
2017-09-03T05:41:35.185Z,2508
2017-09-03T05:42:56.700Z,2564
2017-09-03T05:43:58.105Z,2628
2017-09-03T05:45:19.604Z,2688
2017-09-03T05:46:21.009Z,2796
2017-09-03T05:47:42.526Z,2868
2017-09-03T05:48:43.932Z,2944
2017-09-03T05:50:05.431Z,3112
2017-09-03T05:51:06.837Z,3140
2017-09-03T05:52:28.349Z,3260
2017-09-03T05:53:29.758Z,3360
2017-09-03T05:54:51.250Z,3400
2017-09-03T05:55:52.657Z,3416
2017-09-03T05:57:14.176Z,3484
2017-09-03T05:58:15.591Z,3548
2017-09-03T05:59:37.082Z,3588
2017-09-03T06:00:38.487Z,3628
2017-09-03T06:01:59.997Z,3524
2017-09-03T06:03:01.908Z,3492
2017-09-03T06:04:23.407Z,3480
2017-09-03T06:05:24.813Z,3472
2017-09-03T06:06:46.331Z,3712
2017-09-03T06:07:47.740Z,3928
2017-09-03T06:09:09.230Z,3984
2017-09-03T06:10:10.657Z,3956
2017-09-03T06:11:32.177Z,4196
2017-09-03T06:12:33.583Z,4300
2017-09-03T06:13:55.083Z,4384
2017-09-03T06:14:56.489Z,4316
2017-09-03T06:16:17.983Z,4264
2017-09-03T06:17:19.392Z,4104
2017-09-03T06:18:40.907Z,4324
2017-09-03T06:19:42.320Z,4444
2017-09-03T06:21:03.824Z,4516
2017-09-03T06:22:05.231Z,4584
2017-09-03T06:23:26.946Z,4660
2017-09-03T06:24:28.353Z,4784
2017-09-03T06:25:49.839Z,4740
2017-09-03T06:26:51.252Z,4956
2017-09-03T06:28:12.772Z,5176
2017-09-03T06:29:14.177Z,5220
2017-09-03T06:30:35.671Z,4988
2017-09-03T06:31:37.076Z,5108
2017-09-03T06:32:58.596Z,5328
2017-09-03T06:34:00.001Z,5548
2017-09-03T06:35:21.500Z,5372
2017-09-03T06:36:22.904Z,5604
2017-09-03T06:37:44.422Z,5704
2017-09-03T06:38:45.832Z,5728
2017-09-03T06:40:07.330Z,5856
2017-09-03T06:41:08.733Z,5840
2017-09-03T06:42:30.246Z,6424
2017-09-03T06:43:31.657Z,5896
2017-09-03T06:44:53.151Z,5972
2017-09-03T06:45:54.557Z,5820
2017-09-03T06:47:16.073Z,5800
2017-09-03T06:48:17.482Z,6144
2017-09-03T06:49:38.979Z,6864
2017-09-03T06:50:40.385Z,6960
2017-09-03T06:52:01.918Z,6464
2017-09-03T06:53:03.329Z,6652
2017-09-03T06:54:24.818Z,6780
2017-09-03T06:55:26.224Z,6888
2017-09-03T06:56:47.726Z,7556
2017-09-03T06:57:49.134Z,7352
2017-09-03T06:59:10.651Z,6688
2017-09-03T07:00:12.061Z,6572
2017-09-03T07:01:33.552Z,6720
2017-09-03T07:02:34.963Z,6508
2017-09-03T07:03:56.480Z,6600
2017-09-03T07:04:57.891Z,6904
2017-09-03T07:06:19.387Z,6764
2017-09-03T07:07:20.793Z,6712
2017-09-03T07:08:43.304Z,7212
2017-09-03T07:09:44.713Z,7060
2017-09-03T07:11:06.217Z,7200
2017-09-03T07:12:07.619Z,7656
2017-09-03T07:13:30.155Z,7456
2017-09-03T07:14:31.564Z,7320
2017-09-03T07:15:53.064Z,7512
2017-09-03T07:16:54.473Z,7412
2017-09-03T07:18:15.998Z,7568
2017-09-03T07:19:17.405Z,7720
2017-09-03T07:20:38.903Z,7532
2017-09-03T07:21:40.311Z,7332
2017-09-03T07:23:01.828Z,7716
2017-09-03T07:24:03.237Z,7900
2017-09-03T07:25:24.733Z,8540
2017-09-03T07:26:26.143Z,8892
2017-09-03T07:27:47.659Z,8792
2017-09-03T07:28:49.066Z,9116
2017-09-03T07:30:10.567Z,9304
2017-09-03T07:31:11.973Z,9088
2017-09-03T07:32:33.492Z,9340
2017-09-03T07:33:34.901Z,9460
2017-09-03T07:34:57.391Z,9024
2017-09-03T07:35:58.800Z,9268
2017-09-03T07:37:20.339Z,9360
2017-09-03T07:38:21.745Z,8924
2017-09-03T07:39:43.244Z,8656
2017-09-03T07:40:44.650Z,8156
2017-09-03T07:42:06.151Z,7952
2017-09-03T07:43:07.559Z,8352
2017-09-03T07:44:29.075Z,8968
2017-09-03T07:45:30.492Z,9712
2017-09-03T07:46:51.998Z,10348
2017-09-03T07:47:53.413Z,10228
2017-09-03T07:49:14.928Z,9828
2017-09-03T07:50:16.342Z,9508
2017-09-03T07:51:37.838Z,9288
2017-09-03T07:52:39.246Z,9288
2017-09-03T07:54:00.765Z,9748
2017-09-03T07:55:02.176Z,9836
2017-09-03T07:56:23.672Z,9392
2017-09-03T07:57:25.081Z,9024
2017-09-03T07:58:46.597Z,8616
2017-09-03T07:59:48.009Z,8356
2017-09-03T08:01:09.506Z,7748
2017-09-03T08:02:10.918Z,7352
2017-09-03T08:03:32.609Z,6740
2017-09-03T08:04:34.410Z,6344
2017-09-03T08:05:56.527Z,5932
2017-09-03T08:06:58.312Z,5732
2017-09-03T08:08:20.025Z,5636
2017-09-03T08:09:21.711Z,5516
2017-09-03T08:10:43.463Z,5496
2017-09-03T08:11:44.981Z,5544
2017-09-03T08:13:06.862Z,5464
2017-09-03T08:14:08.268Z,5324
2017-09-03T08:15:29.772Z,5180
2017-09-03T08:16:31.180Z,5120
2017-09-03T08:17:52.697Z,5076
2017-09-03T08:18:54.105Z,5032
2017-09-03T08:20:15.604Z,4968
2017-09-03T08:21:17.014Z,4948
2017-09-03T08:22:38.512Z,4896
2017-09-03T08:23:39.924Z,4868
2017-09-03T08:25:01.465Z,4820
2017-09-03T08:26:02.882Z,4796
2017-09-03T08:27:24.380Z,4768
2017-09-03T08:28:25.787Z,4744
2017-09-03T08:29:47.626Z,4708
2017-09-03T08:30:49.040Z,4684
2017-09-03T08:32:10.540Z,4628
2017-09-03T08:33:12.002Z,4604
2017-09-03T08:34:33.480Z,4560
2017-09-03T08:35:35.427Z,4536
2017-09-03T08:36:56.941Z,4512
2017-09-03T08:37:58.405Z,4476
2017-09-03T08:39:19.928Z,4456
2017-09-03T08:40:21.470Z,4432
2017-09-03T08:41:42.982Z,4408
2017-09-03T08:42:44.408Z,4396
2017-09-03T08:44:05.927Z,4372
2017-09-03T08:45:07.338Z,4356
2017-09-03T08:46:28.839Z,4336
2017-09-03T08:47:30.279Z,4328
2017-09-03T08:48:52.504Z,4304
2017-09-03T08:49:53.912Z,4284
2017-09-03T08:51:15.526Z,4268
2017-09-03T08:52:16.936Z,4260
2017-09-03T08:53:38.456Z,4244
2017-09-03T08:54:39.865Z,4236
2017-09-03T08:56:01.364Z,4236
2017-09-03T08:57:02.773Z,4232
2017-09-03T08:58:24.300Z,4216
2017-09-03T08:59:25.706Z,4208
2017-09-03T09:00:47.325Z,4212
2017-09-03T09:01:48.801Z,4200
2017-09-03T09:03:10.285Z,4192
2017-09-03T09:04:11.695Z,4180
2017-09-03T09:05:33.202Z,4156
2017-09-03T09:06:34.611Z,4140
2017-09-03T09:07:56.112Z,4136
2017-09-03T09:08:57.521Z,4108
2017-09-03T09:10:19.036Z,4096
2017-09-03T09:11:20.450Z,4076
2017-09-03T09:12:42.067Z,4064
2017-09-03T09:13:43.473Z,4056
2017-09-03T09:15:04.992Z,4040
2017-09-03T09:16:06.407Z,4032
2017-09-03T09:17:28.253Z,4028
2017-09-03T09:18:29.666Z,4024
2017-09-03T09:19:51.416Z,4016
2017-09-03T09:20:53.419Z,4020
2017-09-03T09:22:15.409Z,4016
2017-09-03T09:23:16.903Z,4000
2017-09-03T09:24:38.442Z,3972
2017-09-03T09:25:40.012Z,3952
2017-09-03T09:27:01.518Z,3932
2017-09-03T09:28:02.944Z,3908
2017-09-03T09:29:24.462Z,3904
2017-09-03T09:30:25.876Z,3884
2017-09-03T09:31:47.372Z,3860
2017-09-03T09:32:48.783Z,3852
2017-09-03T09:34:10.334Z,3848
2017-09-03T09:35:11.751Z,3844
2017-09-03T09:36:33.255Z,3848
2017-09-03T09:37:34.664Z,3848
2017-09-03T09:38:56.182Z,3840
2017-09-03T09:39:57.753Z,3832
2017-09-03T09:41:19.269Z,3828
2017-09-03T09:42:20.752Z,3820
2017-09-03T09:43:42.386Z,3804
2017-09-03T09:44:43.913Z,3788
2017-09-03T09:46:05.423Z,3784
2017-09-03T09:47:06.844Z,3784
2017-09-03T09:48:28.411Z,3788
2017-09-03T09:49:29.822Z,3776
2017-09-03T09:50:51.325Z,3744
2017-09-03T09:51:52.738Z,3720
2017-09-03T09:53:14.253Z,3700
2017-09-03T09:54:15.669Z,3724
2017-09-03T09:55:37.234Z,3744
2017-09-03T09:56:38.759Z,3736
2017-09-03T09:58:00.852Z,3736
2017-09-03T10:42:52.951Z,3788
2017-09-03T10:43:54.451Z,3808
2017-09-03T10:45:17.417Z,3876
2017-09-03T10:46:18.910Z,3904
2017-09-03T10:47:40.410Z,3880
2017-09-03T10:48:41.819Z,3804
2017-09-03T10:50:03.336Z,3728
2017-09-03T10:51:04.748Z,3740
2017-09-03T10:52:26.657Z,3896
2017-09-03T10:53:28.065Z,3912
2017-09-03T10:54:49.586Z,3940
2017-09-03T10:55:50.997Z,3916
2017-09-03T10:57:12.850Z,4012
2017-09-03T10:58:14.408Z,4032
2017-09-03T10:59:35.940Z,4088
2017-09-03T11:00:37.352Z,4212
2017-09-03T11:01:58.864Z,4396
2017-09-03T11:03:00.287Z,4620
2017-09-03T11:04:21.807Z,5044
2017-09-03T11:05:23.260Z,5304
2017-09-03T11:06:44.766Z,5380
2017-09-03T11:07:46.212Z,5096
2017-09-03T11:09:07.875Z,5148
2017-09-03T11:10:09.293Z,5556
2017-09-03T11:11:30.805Z,6312
2017-09-03T11:12:32.218Z,6644
2017-09-03T11:13:53.733Z,6780
2017-09-03T11:14:55.150Z,6784
2017-09-03T11:16:16.681Z,6180
2017-09-03T11:17:18.092Z,5932
2017-09-03T11:18:39.616Z,5440
2017-09-03T11:19:41.273Z,5136
2017-09-03T11:21:02.870Z,4896
2017-09-03T11:22:04.468Z,4772
2017-09-03T11:23:25.984Z,4680
2017-09-03T11:24:27.393Z,4616
2017-09-03T11:25:48.922Z,4472
2017-09-03T11:26:50.335Z,4564
2017-09-03T11:28:11.837Z,4704
2017-09-03T11:29:13.248Z,5032
2017-09-03T11:30:34.773Z,5344
2017-09-03T11:31:36.185Z,5200
2017-09-03T11:32:57.686Z,4836
2017-09-03T11:33:59.097Z,4808
2017-09-03T11:35:21.758Z,5436
2017-09-03T11:36:23.169Z,5316
2017-09-03T11:37:44.671Z,5568
2017-09-03T11:38:46.083Z,6100
2017-09-03T11:40:07.605Z,6436
2017-09-03T11:41:09.019Z,6372
2017-09-03T11:42:30.521Z,5924
2017-09-03T11:43:31.936Z,6060
2017-09-03T11:44:53.457Z,5580
2017-09-03T11:45:54.870Z,5468
2017-09-03T11:47:19.253Z,5272
2017-09-03T13:48:15.673Z,4432
2017-09-03T13:49:17.085Z,4644
2017-09-03T13:50:38.612Z,5304
2017-09-03T13:51:40.022Z,5660
2017-09-03T13:53:01.524Z,6184
2017-09-03T13:54:02.934Z,6388
2017-09-03T13:55:24.455Z,6048
2017-09-03T13:56:25.868Z,5724
2017-09-03T13:57:47.367Z,5264
2017-09-03T13:58:48.782Z,5032
2017-09-03T14:00:10.311Z,4996
2017-09-03T14:01:11.720Z,5008
2017-09-03T14:02:33.290Z,5224
2017-09-03T14:03:34.704Z,5420
2017-09-03T14:04:56.235Z,5784
2017-09-03T14:05:57.644Z,5976
2017-09-03T14:07:19.171Z,6216
2017-09-03T14:08:20.585Z,6100
2017-09-03T14:09:42.123Z,5972
2017-09-03T14:10:43.535Z,5924
2017-09-03T14:12:05.068Z,5860
2017-09-03T14:13:06.481Z,6032
2017-09-03T14:14:28.015Z,5956
2017-09-03T14:15:29.432Z,5768
2017-09-03T14:16:50.972Z,5532
2017-09-03T14:17:52.386Z,5384
2017-09-03T14:19:13.898Z,5216
2017-09-03T14:20:15.309Z,5144
2017-09-03T14:21:36.834Z,5180
2017-09-03T14:22:38.250Z,5136
2017-09-03T14:23:59.751Z,5192
2017-09-03T14:25:01.167Z,5312
2017-09-03T14:26:22.689Z,5356
2017-09-03T14:27:24.108Z,5336
2017-09-03T14:28:45.613Z,5280
2017-09-03T14:29:47.027Z,5368
2017-09-03T14:31:08.552Z,5444
2017-09-03T14:32:09.967Z,5388
2017-09-03T14:33:31.469Z,5272
2017-09-03T14:34:32.882Z,5116
2017-09-03T14:35:54.408Z,4812
2017-09-03T14:36:55.819Z,4704
2017-09-03T14:38:17.328Z,4516
2017-09-03T14:39:18.743Z,4444
2017-09-03T14:40:40.265Z,4312
2017-09-03T14:41:41.680Z,4088
2017-09-03T14:43:03.183Z,3972
2017-09-03T14:44:04.596Z,3852
2017-09-03T14:45:26.100Z,3772
2017-09-03T14:46:27.512Z,3792
2017-09-03T14:47:49.220Z,4024
2017-09-03T14:48:50.635Z,4220
2017-09-03T14:50:12.140Z,4420
2017-09-03T14:51:13.553Z,4492
2017-09-03T14:52:35.076Z,4588
2017-09-03T14:53:36.489Z,4580
2017-09-03T14:54:57.993Z,4704
2017-09-03T14:55:59.405Z,4716
2017-09-03T14:57:20.936Z,4608
2017-09-03T14:58:22.349Z,4472
2017-09-03T14:59:43.854Z,4284
2017-09-03T15:00:45.264Z,4188
2017-09-03T15:02:06.787Z,4048
2017-09-03T15:03:08.201Z,3960
2017-09-03T15:04:29.704Z,3844
2017-09-03T15:05:31.119Z,3784
2017-09-03T15:06:52.643Z,3768
2017-09-03T15:07:54.057Z,3788
2017-09-03T15:09:15.631Z,3844
2017-09-03T15:10:17.321Z,3860
2017-09-03T15:11:38.852Z,3872
2017-09-03T15:12:40.266Z,3856
2017-09-03T15:14:01.965Z,3812
2017-09-03T15:15:03.393Z,3792
2017-09-03T15:16:24.904Z,3784
2017-09-03T15:17:26.320Z,3804
2017-09-03T15:18:47.820Z,3816
2017-09-03T15:19:49.239Z,3824
2017-09-03T15:21:10.759Z,3796
2017-09-03T15:22:12.174Z,3756
2017-09-03T15:23:33.679Z,3704
2017-09-03T15:24:35.092Z,3684
2017-09-03T15:25:56.638Z,3684
2017-09-03T15:27:37.518Z,3692
2017-09-03T15:28:38.931Z,3708
2017-09-03T15:30:00.437Z,3752
2017-09-03T15:31:01.851Z,3760
2017-09-03T15:32:23.372Z,3764
2017-09-03T15:33:24.787Z,3772
2017-09-03T15:34:46.487Z,3800
2017-09-03T15:35:47.906Z,3804
2017-09-03T15:37:09.438Z,3772
2017-09-03T15:38:10.850Z,3744
2017-09-03T15:39:32.358Z,3724
2017-09-03T15:40:33.770Z,3716
2017-09-03T15:41:55.646Z,3696
2017-09-03T15:42:57.427Z,3692
2017-09-03T15:44:18.934Z,3684
2017-09-03T15:45:20.347Z,3688
2017-09-03T15:46:42.959Z,3648
2017-09-03T15:47:44.424Z,3672
2017-09-03T15:49:05.928Z,3672
2017-09-03T15:50:07.364Z,3672
2017-09-03T15:51:28.882Z,3668
2017-09-03T15:52:30.300Z,3664
2017-09-03T15:53:51.849Z,3652
2017-09-03T15:54:53.415Z,3652
2017-09-03T15:56:15.174Z,3644
2017-09-03T15:57:16.692Z,3636
2017-09-03T15:58:38.237Z,3616
2017-09-03T15:59:39.649Z,3600
2017-09-03T16:01:01.182Z,3600
2017-09-03T16:02:02.595Z,3596
2017-09-03T16:03:24.122Z,3588
2017-09-03T16:04:25.537Z,3576
2017-09-03T16:05:47.061Z,3568
2017-09-03T16:06:48.479Z,3560
2017-09-03T16:08:10.004Z,3548
2017-09-03T16:09:11.417Z,3540
2017-09-03T16:10:32.924Z,3520
2017-09-03T16:11:34.336Z,3504
2017-09-03T16:12:55.857Z,3492
2017-09-03T16:13:57.276Z,3480
2017-09-03T16:15:18.786Z,3448
2017-09-03T16:16:20.202Z,3420
2017-09-03T16:17:41.727Z,3380
2017-09-03T16:18:43.141Z,3364
2017-09-03T16:20:04.665Z,3344
2017-09-03T16:21:06.088Z,3332
2017-09-03T16:22:27.617Z,3312
2017-09-03T16:23:29.030Z,3296
2017-09-03T16:24:50.557Z,3264
2017-09-03T16:25:51.993Z,3248
2017-09-03T16:27:13.761Z,3236
2017-09-03T16:28:15.234Z,3228
2017-09-03T16:29:36.740Z,3212
2017-09-03T16:30:38.164Z,3200
2017-09-03T16:31:59.678Z,3180
2017-09-03T16:33:01.094Z,3164
2017-09-03T16:34:22.721Z,3148
2017-09-03T16:35:24.165Z,3136
2017-09-03T16:36:45.688Z,3120
2017-09-03T16:37:47.102Z,3108
2017-09-03T16:39:08.615Z,3092
2017-09-03T16:40:10.032Z,3076
2017-09-03T16:41:31.565Z,3052
2017-09-03T16:42:32.979Z,3024
2017-09-03T16:43:54.489Z,2992
2017-09-03T16:44:55.904Z,2964
2017-09-03T16:46:17.410Z,2924
2017-09-03T16:47:18.823Z,2896
2017-09-03T16:48:40.351Z,2856
2017-09-03T16:49:41.824Z,2820
2017-09-03T16:51:03.394Z,2760
2017-09-03T16:52:04.797Z,2700
2017-09-03T16:53:26.333Z,2640
2017-09-03T16:54:27.747Z,2600
2017-09-03T16:55:49.261Z,2560
2017-09-03T16:56:50.686Z,2536
2017-09-03T16:58:12.218Z,2492
2017-09-03T16:59:13.834Z,2456
2017-09-03T17:00:35.438Z,2396
2017-09-03T17:01:36.901Z,2356
2017-09-03T17:02:58.431Z,2304
2017-09-03T17:03:59.857Z,2272
2017-09-03T17:05:22.420Z,2240
2017-09-03T17:06:23.828Z,2220
2017-09-03T17:07:45.963Z,2196
2017-09-03T17:08:47.299Z,2172
2017-09-03T17:10:08.996Z,2128
2017-09-03T17:11:10.407Z,2096
2017-09-03T17:12:31.929Z,2040
2017-09-03T17:13:33.342Z,1996
2017-09-03T17:14:54.934Z,1944
2017-09-03T17:15:56.345Z,1908
2017-09-03T17:17:18.042Z,1856
2017-09-03T17:18:19.456Z,1812
2017-09-03T17:19:40.954Z,1748
2017-09-03T17:20:42.365Z,1700
2017-09-03T17:22:03.891Z,1644
2017-09-03T17:23:05.302Z,1604
2017-09-03T17:24:26.804Z,1552
2017-09-03T17:25:28.214Z,1524
2017-09-03T17:26:49.744Z,1504
2017-09-03T17:27:51.155Z,1472
2017-09-03T17:29:12.667Z,1412
2017-09-03T17:30:14.080Z,1372
2017-09-03T17:31:35.585Z,1324
2017-09-03T17:32:36.990Z,1292
2017-09-03T17:33:58.516Z,1248
2017-09-03T17:34:59.925Z,1208
2017-09-03T17:36:21.430Z,1172
2017-09-03T17:37:22.839Z,1144
2017-09-03T17:38:44.854Z,1088
2017-09-03T17:39:46.266Z,1044
2017-09-03T17:41:07.764Z,996
2017-09-03T17:42:09.172Z,956
2017-09-03T17:43:30.698Z,904
2017-09-03T17:44:32.109Z,872
2017-09-03T17:45:53.621Z,840
2017-09-03T17:46:55.032Z,812
2017-09-03T17:48:16.553Z,784
2017-09-03T17:49:17.962Z,748
2017-09-03T17:50:39.465Z,688
2017-09-03T17:51:40.875Z,640
2017-09-03T17:53:02.407Z,588
2017-09-03T17:54:03.884Z,560
2017-09-03T17:55:26.781Z,520
2017-09-03T17:56:28.212Z,488
2017-09-03T17:57:49.766Z,440
2017-09-03T17:58:51.219Z,408
2017-09-03T18:00:12.717Z,360
2017-09-03T18:01:14.125Z,332
2017-09-03T18:02:35.640Z,288
2017-09-03T18:03:37.054Z,260
2017-09-03T18:04:58.666Z,228
2017-09-03T18:06:00.074Z,204
2017-09-03T18:07:21.569Z,180
2017-09-03T18:08:22.978Z,164
2017-09-03T18:09:45.509Z,144
2017-09-03T18:10:46.921Z,128
2017-09-03T18:12:08.420Z,116
2017-09-03T18:13:09.841Z,100
2017-09-03T18:14:31.357Z,88
2017-09-03T18:15:32.764Z,76
2017-09-03T18:16:54.258Z,64
2017-09-03T18:17:55.668Z,60
2017-09-03T18:19:17.190Z,48
2017-09-03T18:20:18.598Z,44
2017-09-03T18:21:40.142Z,36
2017-09-03T18:22:41.544Z,32
2017-09-03T18:24:03.341Z,24
2017-09-03T18:25:04.853Z,24
2017-09-03T18:26:26.356Z,16
2017-09-03T18:27:27.756Z,16
2017-09-03T18:28:49.289Z,12
2017-09-03T18:29:50.730Z,12
2017-09-03T18:31:13.850Z,8
2017-09-03T18:32:15.951Z,8
2017-09-03T18:33:40.329Z,8
2017-09-03T18:34:41.643Z,4
2017-09-03T18:36:03.738Z,4
2017-09-03T18:37:05.204Z,4
2017-09-03T18:38:26.729Z,4
2017-09-03T18:39:28.205Z,4
2017-09-03T18:40:49.760Z,0
2017-09-03T18:41:51.229Z,0
2017-09-03T18:43:12.861Z,0
2017-09-03T18:44:14.232Z,0
2017-09-03T18:45:35.751Z,0
2017-09-03T18:46:37.153Z,0
2017-09-03T18:47:59.199Z,0
2017-09-03T18:49:00.614Z,0
2017-09-03T18:50:22.162Z,0
2017-09-03T18:51:23.568Z,0
2017-09-03T18:52:45.098Z,0
2017-09-03T18:53:46.574Z,0
2017-09-03T18:55:08.089Z,0
2017-09-03T18:56:09.545Z,0
2017-09-03T18:57:31.334Z,0
2017-09-03T18:58:32.847Z,0
2017-09-03T18:59:54.397Z,0
2017-09-03T19:00:55.803Z,0
2017-09-03T19:02:17.300Z,0
2017-09-03T19:03:18.708Z,0
2017-09-03T19:04:40.234Z,0
2017-09-03T19:05:41.637Z,0
2017-09-03T19:07:03.134Z,0
2017-09-03T19:08:04.553Z,0
2017-09-03T19:09:26.252Z,0
2017-09-03T19:10:27.894Z,0